Time;durP1;ratioP1;P1;durP2;ratioP2;P2;SDS_P1;SDS_P2;PMS_P1;PMS_P2;Temp;Humidity;BMP_temperature;BMP_pressure;BME280_temperature;BME280_humidity;BME280_pressure;Samples;Min_cycle;Max_cycle;Signal;HPM_P1;HPM_P2
2022/12/04 00:01:03;;;;;;;32.37;16.27;;;0.30;99.90;;;;;;5007136;28;20215;-62
2022/12/04 00:03:30;;;;;;;36.87;16.27;;;0.40;99.90;;;;;;4996891;28;20212;-62
2022/12/04 00:06:03;;;;;;;31.23;16.57;;;0.50;99.90;;;;;;5010903;28;20214;-61
2022/12/04 00:08:30;;;;;;;34.97;16.63;;;0.40;99.90;;;;;;5000714;28;20193;-62
2022/12/04 00:10:57;;;;;;;37.37;16.60;;;0.30;99.90;;;;;;4998147;28;20199;-62
2022/12/04 00:13:24;;;;;;;36.10;16.07;;;0.40;99.90;;;;;;5023294;28;20217;-62
2022/12/04 00:15:53;;;;;;;33.33;17.20;;;0.40;99.90;;;;;;5006784;28;20227;-61
2022/12/04 00:18:20;;;;;;;34.80;16.37;;;0.40;99.90;;;;;;5013770;28;20228;-61
2022/12/04 00:20:47;;;;;;;34.33;16.07;;;0.30;99.90;;;;;;5009601;28;20655;-61
2022/12/04 00:23:13;;;;;;;39.70;17.13;;;0.30;99.90;;;;;;5013236;28;20324;-62
2022/12/04 00:25:40;;;;;;;35.90;17.97;;;0.30;99.90;;;;;;5008485;28;20215;-61
2022/12/04 00:28:07;;;;;;;33.73;17.40;;;0.30;99.90;;;;;;4981755;28;20218;-61
2022/12/04 00:30:34;;;;;;;37.70;17.37;;;0.20;99.90;;;;;;5000517;28;20196;-61
2022/12/04 00:33:02;;;;;;;41.27;17.87;;;0.30;99.90;;;;;;5003242;28;20832;-62
2022/12/04 00:35:29;;;;;;;35.40;17.40;;;0.30;99.90;;;;;;5013782;28;20214;-61
2022/12/04 00:37:55;;;;;;;34.73;17.23;;;0.30;99.90;;;;;;5016429;28;20196;-62
2022/12/04 00:40:22;;;;;;;42.13;18.60;;;0.30;99.90;;;;;;5011230;28;20209;-61
2022/12/04 00:42:49;;;;;;;36.30;17.10;;;0.30;99.90;;;;;;4995453;28;20704;-61
2022/12/04 00:45:16;;;;;;;37.67;17.03;;;0.30;99.90;;;;;;5014326;28;20407;-61
2022/12/04 00:47:43;;;;;;;30.40;16.30;;;0.30;99.90;;;;;;5014636;28;20463;-61
2022/12/04 00:50:12;;;;;;;38.73;17.50;;;0.40;99.90;;;;;;5000667;28;20699;-62
2022/12/04 00:52:38;;;;;;;36.70;18.27;;;0.30;99.90;;;;;;5006247;28;20194;-62
2022/12/04 00:55:06;;;;;;;32.93;16.40;;;0.30;99.90;;;;;;4995551;28;20397;-61
2022/12/04 00:57:33;;;;;;;34.50;17.07;;;0.30;99.90;;;;;;5017490;28;20757;-61
2022/12/04 01:00:00;;;;;;;44.93;18.30;;;0.30;99.90;;;;;;4975372;28;20407;-62
2022/12/04 01:02:26;;;;;;;37.87;17.40;;;0.20;99.90;;;;;;5014730;28;20252;-61
2022/12/04 01:04:53;;;;;;;37.10;17.60;;;0.30;99.90;;;;;;5011247;28;20195;-61
2022/12/04 01:07:21;;;;;;;34.90;17.33;;;0.30;99.90;;;;;;5015429;28;20198;-61
2022/12/04 01:09:48;;;;;;;39.50;18.77;;;0.30;99.90;;;;;;4998852;28;20204;-61
2022/12/04 01:12:15;;;;;;;33.23;16.23;;;0.30;99.90;;;;;;5007399;28;20914;-61
2022/12/04 01:14:42;;;;;;;38.37;17.93;;;0.30;99.90;;;;;;4994465;28;20662;-61
2022/12/04 01:17:09;;;;;;;36.30;17.97;;;0.40;99.90;;;;;;5006460;28;20222;-61
2022/12/04 01:19:35;;;;;;;39.87;19.30;;;0.40;99.90;;;;;;5024818;28;20228;-62
2022/12/04 01:22:02;;;;;;;35.23;16.57;;;0.40;99.90;;;;;;5012916;28;20219;-61
2022/12/04 01:24:31;;;;;;;34.20;16.77;;;0.40;99.90;;;;;;5028661;28;20275;-61
2022/12/04 01:26:57;;;;;;;32.43;16.47;;;0.30;99.90;;;;;;5012228;28;20428;-61
2022/12/04 01:29:24;;;;;;;36.33;17.70;;;0.30;99.90;;;;;;5027648;28;20694;-61
2022/12/04 01:31:51;;;;;;;34.47;18.00;;;0.40;99.90;;;;;;4992107;28;20699;-61
2022/12/04 01:34:18;;;;;;;36.93;16.93;;;0.30;99.90;;;;;;5023323;28;20215;-62
2022/12/04 01:36:45;;;;;;;39.37;17.93;;;0.40;99.90;;;;;;5021641;28;20594;-61
2022/12/04 01:39:11;;;;;;;36.43;17.70;;;0.40;99.90;;;;;;5019419;28;20417;-61
2022/12/04 01:41:40;;;;;;;39.63;17.57;;;0.30;99.90;;;;;;5009568;28;20208;-62
2022/12/04 01:44:12;;;;;;;38.00;17.20;;;0.40;99.90;;;;;;5029762;28;20229;-61
2022/12/04 01:46:40;;;;;;;36.40;17.73;;;0.30;99.90;;;;;;4997960;28;20594;-61
2022/12/04 01:49:09;;;;;;;32.10;16.87;;;0.40;99.90;;;;;;5014768;28;20234;-61
2022/12/04 01:51:40;;;;;;;41.93;17.57;;;0.30;99.90;;;;;;5028471;28;20199;-61
2022/12/04 01:54:11;;;;;;;33.17;15.73;;;0.40;99.90;;;;;;5007047;28;20210;-61
2022/12/04 01:56:42;;;;;;;35.40;17.90;;;0.40;99.90;;;;;;5010934;28;20707;-61
2022/12/04 01:59:12;;;;;;;36.83;17.93;;;0.40;99.90;;;;;;5019354;28;20687;-61
2022/12/04 02:01:44;;;;;;;35.87;17.70;;;0.40;99.90;;;;;;5022634;28;20200;-61
2022/12/04 02:04:11;;;;;;;39.17;18.33;;;0.30;99.90;;;;;;4997775;28;20399;-61
2022/12/04 02:06:37;;;;;;;36.13;16.83;;;0.40;99.90;;;;;;5025707;28;20205;-61
2022/12/04 02:09:04;;;;;;;39.57;18.07;;;0.30;99.90;;;;;;5005929;28;20231;-61
2022/12/04 02:11:39;;;;;;;34.37;16.53;;;0.30;99.90;;;;;;5028040;28;20211;-61
2022/12/04 02:14:20;;;;;;;39.93;18.87;;;0.30;99.90;;;;;;5006290;28;20424;-61
2022/12/04 02:16:52;;;;;;;40.63;19.03;;;0.30;99.90;;;;;;5007585;28;20233;-61
2022/12/04 02:19:44;;;;;;;37.43;17.80;;;0.30;99.90;;;;;;5021929;28;20222;-61
2022/12/04 02:22:22;;;;;;;41.73;17.87;;;0.20;99.90;;;;;;5024249;28;20740;-61
2022/12/04 02:24:56;;;;;;;42.30;18.37;;;0.30;99.90;;;;;;5012398;28;20671;-62
2022/12/04 02:27:33;;;;;;;35.20;17.97;;;0.30;99.90;;;;;;5031876;28;20222;-62
2022/12/04 02:30:05;;;;;;;39.10;18.13;;;0.30;99.90;;;;;;5013143;28;20208;-71
2022/12/04 02:32:39;;;;;;;38.07;18.10;;;0.30;99.90;;;;;;5028198;28;20291;-62
2022/12/04 02:35:11;;;;;;;38.73;18.10;;;0.30;99.90;;;;;;4999305;28;20207;-61
2022/12/04 02:37:40;;;;;;;38.57;18.47;;;0.30;99.90;;;;;;5022280;28;20232;-61
2022/12/04 02:40:12;;;;;;;39.40;17.77;;;0.30;99.90;;;;;;5012202;28;20771;-61
2022/12/04 02:42:42;;;;;;;38.10;17.57;;;0.40;99.90;;;;;;5025912;28;20245;-61
2022/12/04 02:45:13;;;;;;;33.80;17.30;;;0.40;99.90;;;;;;5011072;28;20201;-62
2022/12/04 02:47:42;;;;;;;41.37;18.90;;;0.30;99.90;;;;;;5017900;28;20695;-61
2022/12/04 02:50:13;;;;;;;37.50;18.40;;;0.40;99.90;;;;;;5001772;28;20201;-61
2022/12/04 02:52:45;;;;;;;39.33;19.20;;;0.30;99.90;;;;;;5023434;28;20193;-61
2022/12/04 02:55:17;;;;;;;37.00;18.33;;;0.30;99.90;;;;;;5026607;28;20200;-61
2022/12/04 02:57:48;;;;;;;39.47;18.80;;;0.30;99.90;;;;;;5010649;28;20605;-61
2022/12/04 03:00:18;;;;;;;37.57;17.93;;;0.30;99.90;;;;;;5016837;28;20429;-61
2022/12/04 03:02:48;;;;;;;35.60;17.63;;;0.30;99.90;;;;;;5029067;28;20600;-61
2022/12/04 03:05:18;;;;;;;38.03;17.97;;;0.30;99.90;;;;;;4998265;28;20227;-62
2022/12/04 03:07:49;;;;;;;39.80;18.30;;;0.30;99.90;;;;;;5026089;28;20218;-62
2022/12/04 03:10:18;;;;;;;42.63;18.43;;;0.40;99.90;;;;;;5032036;28;20383;-61
2022/12/04 03:12:55;;;;;;;35.50;17.17;;;0.30;99.90;;;;;;5016704;28;20707;-61
2022/12/04 03:15:28;;;;;;;36.13;17.40;;;0.30;99.90;;;;;;5018419;28;20206;-62
2022/12/04 03:18:01;;;;;;;33.53;16.97;;;0.40;99.90;;;;;;5022539;28;20241;-61
2022/12/04 03:20:28;;;;;;;36.90;17.50;;;0.50;99.90;;;;;;4999822;28;20647;-62
2022/12/04 03:23:00;;;;;;;35.67;17.57;;;0.40;99.90;;;;;;5026909;28;20201;-61
2022/12/04 03:25:35;;;;;;;42.90;18.27;;;0.40;99.90;;;;;;5029281;28;20207;-62
2022/12/04 03:28:05;;;;;;;38.87;17.23;;;0.40;99.90;;;;;;5013351;28;20240;-61
2022/12/04 03:30:39;;;;;;;39.37;17.30;;;0.40;99.90;;;;;;5011378;28;20220;-62
2022/12/04 03:33:11;;;;;;;42.27;18.13;;;0.40;99.90;;;;;;5025071;28;20578;-62
2022/12/04 03:35:44;;;;;;;38.73;17.67;;;0.40;99.90;;;;;;5000801;28;20213;-62
2022/12/04 03:38:16;;;;;;;38.93;17.33;;;0.40;99.90;;;;;;5028410;28;20230;-61
2022/12/04 03:40:49;;;;;;;36.53;18.07;;;0.40;99.90;;;;;;5024407;28;20233;-62
2022/12/04 03:43:23;;;;;;;37.53;16.60;;;0.40;99.90;;;;;;5028059;28;20197;-61
2022/12/04 03:45:55;;;;;;;35.43;17.57;;;0.40;99.90;;;;;;5005343;28;20229;-62
2022/12/04 03:48:25;;;;;;;31.80;17.37;;;0.40;99.90;;;;;;5023103;28;20201;-61
2022/12/04 03:50:59;;;;;;;35.67;18.00;;;0.40;99.90;;;;;;4991848;28;20222;-61
2022/12/04 03:53:32;;;;;;;36.13;17.57;;;0.60;99.90;;;;;;5026228;28;20194;-62
2022/12/04 03:56:04;;;;;;;39.97;18.00;;;0.50;99.90;;;;;;5024381;28;20287;-61
2022/12/04 03:58:34;;;;;;;39.30;17.57;;;0.50;99.90;;;;;;5027058;28;20195;-61
2022/12/04 04:01:04;;;;;;;40.27;18.07;;;0.50;99.90;;;;;;5013994;28;20401;-61
2022/12/04 04:03:34;;;;;;;37.73;16.93;;;0.50;99.90;;;;;;5012080;28;20218;-62
2022/12/04 04:06:05;;;;;;;33.63;15.70;;;0.50;99.90;;;;;;4990885;28;21516;-62
2022/12/04 04:08:37;;;;;;;33.07;15.93;;;0.50;99.90;;;;;;5022568;28;20210;-61
2022/12/04 04:11:10;;;;;;;34.10;17.33;;;0.50;99.90;;;;;;5017539;28;20190;-61
2022/12/04 04:24:57;;;;;;;38.27;16.13;;;0.50;99.90;;;;;;5020225;28;20201;-61
2022/12/04 04:27:23;;;;;;;33.33;15.03;;;0.50;99.90;;;;;;5024415;28;20677;-61
2022/12/04 04:29:52;;;;;;;30.93;15.33;;;0.50;99.90;;;;;;5025296;28;20198;-61
2022/12/04 04:32:30;;;;;;;33.37;15.63;;;0.40;99.90;;;;;;5011091;28;20543;-61
2022/12/04 04:35:03;;;;;;;35.20;16.53;;;0.50;99.90;;;;;;5008365;28;20222;-61
2022/12/04 04:37:36;;;;;;;37.10;17.70;;;0.50;99.90;;;;;;4992464;28;20551;-61
2022/12/04 04:40:09;;;;;;;32.53;15.47;;;0.40;99.90;;;;;;5023478;28;20229;-61
2022/12/04 04:42:42;;;;;;;37.70;16.07;;;0.40;99.90;;;;;;5032212;28;20198;-61
2022/12/04 04:45:15;;;;;;;38.37;15.67;;;0.50;99.90;;;;;;5021624;28;20340;-61
2022/12/04 04:47:50;;;;;;;33.43;14.93;;;0.50;99.90;;;;;;5010964;28;20196;-61
2022/12/04 04:50:19;;;;;;;37.37;16.33;;;0.50;99.90;;;;;;5020205;28;20201;-61
2022/12/04 04:52:49;;;;;;;34.37;15.90;;;0.40;99.90;;;;;;4995833;28;20217;-61
2022/12/04 04:55:17;;;;;;;28.97;14.60;;;0.50;99.90;;;;;;5023915;28;20424;-61
2022/12/04 04:57:44;;;;;;;30.57;15.47;;;0.50;99.90;;;;;;5018122;28;20229;-61
2022/12/04 05:00:14;;;;;;;33.77;15.23;;;0.50;99.90;;;;;;5020186;28;20225;-61
2022/12/04 05:02:41;;;;;;;25.93;14.37;;;0.60;99.90;;;;;;5016171;28;20201;-61
2022/12/04 05:05:11;;;;;;;31.97;15.27;;;0.60;99.90;;;;;;4994123;28;20197;-61
2022/12/04 05:07:38;;;;;;;33.67;16.27;;;0.60;99.90;;;;;;4991245;28;20224;-61
2022/12/04 05:10:06;;;;;;;32.53;16.40;;;0.60;99.90;;;;;;5012341;28;20205;-61
2022/12/04 05:12:33;;;;;;;27.63;15.03;;;0.40;99.90;;;;;;5014228;28;20198;-61
2022/12/04 05:15:00;;;;;;;28.47;14.33;;;0.60;99.90;;;;;;5019079;28;20242;-61
2022/12/04 05:17:27;;;;;;;33.37;15.07;;;0.60;99.90;;;;;;5005301;28;20674;-61
2022/12/04 05:19:54;;;;;;;32.80;16.60;;;0.60;99.90;;;;;;5013746;28;20205;-61
2022/12/04 05:22:25;;;;;;;32.57;15.63;;;0.60;99.90;;;;;;5019200;28;20290;-61
2022/12/04 05:24:52;;;;;;;32.23;14.90;;;0.60;99.90;;;;;;4999572;28;20198;-61
2022/12/04 05:27:19;;;;;;;33.33;14.73;;;0.60;99.90;;;;;;5010222;28;20211;-61
2022/12/04 05:29:46;;;;;;;34.63;15.57;;;0.70;99.90;;;;;;5033543;28;20205;-61
2022/12/04 05:32:13;;;;;;;32.17;15.73;;;0.70;99.90;;;;;;5020388;28;20198;-61
2022/12/04 05:34:40;;;;;;;26.47;14.90;;;0.70;99.90;;;;;;4998597;28;20212;-61
2022/12/04 05:37:07;;;;;;;29.03;14.53;;;0.70;99.90;;;;;;5020879;28;20231;-61
2022/12/04 05:39:35;;;;;;;32.70;15.63;;;0.70;99.90;;;;;;4994919;28;20395;-61
2022/12/04 05:42:02;;;;;;;33.33;15.47;;;0.70;99.90;;;;;;5010916;28;20213;-61
2022/12/04 05:44:29;;;;;;;30.27;16.67;;;0.70;99.90;;;;;;5014817;28;20717;-62
2022/12/04 05:46:55;;;;;;;32.57;14.90;;;0.70;99.90;;;;;;5020379;28;20208;-62
2022/12/04 05:49:22;;;;;;;33.10;15.07;;;0.80;99.90;;;;;;5006608;28;20204;-61
2022/12/04 05:51:49;;;;;;;28.83;15.13;;;0.80;99.90;;;;;;5011779;28;20210;-61
2022/12/04 05:54:16;;;;;;;29.43;15.70;;;0.70;99.90;;;;;;4997000;28;20693;-62
2022/12/04 05:56:45;;;;;;;30.07;15.60;;;0.80;99.90;;;;;;5014410;28;20276;-62
2022/12/04 05:59:11;;;;;;;31.13;15.47;;;0.80;99.90;;;;;;5018067;28;20229;-61
2022/12/04 06:01:38;;;;;;;32.70;15.43;;;0.80;99.90;;;;;;5026174;28;20197;-61
2022/12/04 06:04:05;;;;;;;30.60;16.90;;;0.80;99.90;;;;;;5021915;28;20197;-61
2022/12/04 06:06:32;;;;;;;34.73;17.33;;;0.80;99.90;;;;;;5013219;28;20857;-61
2022/12/04 06:09:00;;;;;;;32.30;16.70;;;0.80;99.90;;;;;;5007917;28;20725;-61
2022/12/04 06:11:28;;;;;;;34.33;16.27;;;0.80;99.90;;;;;;4991528;28;20205;-62
2022/12/04 06:13:57;;;;;;;31.20;15.27;;;0.80;99.90;;;;;;5011724;28;20231;-62
2022/12/04 06:16:26;;;;;;;32.63;15.07;;;0.80;99.90;;;;;;5019592;28;20310;-61
2022/12/04 06:18:55;;;;;;;35.70;15.60;;;0.80;99.90;;;;;;5024320;28;20245;-62
2022/12/04 06:21:23;;;;;;;31.73;16.10;;;0.80;99.90;;;;;;5007965;28;20773;-61
2022/12/04 06:23:51;;;;;;;32.37;14.67;;;0.80;99.90;;;;;;5023111;28;20902;-61
2022/12/04 06:26:18;;;;;;;34.90;16.10;;;0.90;99.90;;;;;;4983690;28;20206;-61
2022/12/04 06:28:45;;;;;;;31.83;15.87;;;0.90;99.90;;;;;;5025593;28;20312;-62
2022/12/04 06:31:17;;;;;;;28.73;14.97;;;0.90;99.90;;;;;;5010352;28;20211;-61
2022/12/04 06:33:45;;;;;;;32.40;14.57;;;0.90;99.90;;;;;;5026544;28;20570;-61
2022/12/04 06:36:13;;;;;;;32.03;15.97;;;0.90;99.90;;;;;;5018859;28;20210;-61
2022/12/04 06:38:41;;;;;;;28.47;14.37;;;0.90;99.90;;;;;;5020622;28;20234;-61
2022/12/04 06:41:10;;;;;;;34.67;15.40;;;0.90;99.90;;;;;;4988925;28;20225;-61
2022/12/04 06:43:37;;;;;;;27.80;14.00;;;0.90;99.90;;;;;;5013959;28;20204;-61
2022/12/04 06:46:06;;;;;;;32.03;14.93;;;0.90;99.90;;;;;;5013294;28;20203;-61
2022/12/04 06:48:34;;;;;;;34.13;15.77;;;1.00;99.90;;;;;;5023789;28;20397;-61
2022/12/04 06:51:02;;;;;;;31.43;14.77;;;0.90;99.90;;;;;;5030104;28;20212;-61
2022/12/04 06:53:29;;;;;;;31.17;14.30;;;1.00;99.90;;;;;;5009639;28;20203;-62
2022/12/04 06:55:57;;;;;;;31.63;14.80;;;1.00;99.90;;;;;;4992840;28;20736;-61
2022/12/04 06:58:24;;;;;;;29.60;14.40;;;1.00;99.90;;;;;;5012628;28;20235;-61
2022/12/04 07:00:51;;;;;;;26.90;13.77;;;1.00;99.90;;;;;;5022170;28;20576;-62
2022/12/04 07:03:18;;;;;;;28.40;14.13;;;1.10;99.90;;;;;;5010457;28;20417;-61
2022/12/04 07:05:46;;;;;;;33.30;15.73;;;1.00;99.90;;;;;;5028459;28;20200;-61
2022/12/04 07:08:14;;;;;;;28.23;14.37;;;1.00;99.90;;;;;;5006429;28;20203;-61
2022/12/04 07:10:41;;;;;;;28.43;14.00;;;1.10;99.90;;;;;;4992148;28;20614;-62
2022/12/04 07:13:08;;;;;;;27.97;14.43;;;1.00;99.90;;;;;;5020118;28;20210;-62
2022/12/04 07:15:37;;;;;;;30.20;14.57;;;1.00;99.90;;;;;;5017151;28;20485;-62
2022/12/04 07:18:04;;;;;;;31.90;14.83;;;1.00;99.90;;;;;;5010043;28;20256;-61
2022/12/04 07:20:31;;;;;;;28.07;14.33;;;1.00;99.90;;;;;;5024398;28;20200;-61
2022/12/04 07:22:59;;;;;;;29.60;13.07;;;1.00;99.90;;;;;;5016554;28;20207;-62
2022/12/04 07:25:28;;;;;;;34.53;15.23;;;1.10;99.90;;;;;;4991320;28;20640;-62
2022/12/04 07:27:55;;;;;;;31.20;14.30;;;1.10;99.90;;;;;;5022838;28;20194;-61
2022/12/04 07:30:22;;;;;;;33.60;15.00;;;1.10;99.90;;;;;;5007500;28;20680;-61
2022/12/04 07:32:48;;;;;;;33.77;14.23;;;1.10;99.90;;;;;;5016319;28;20582;-61
2022/12/04 07:35:15;;;;;;;29.77;14.47;;;1.10;99.90;;;;;;5025358;28;20533;-62
2022/12/04 07:37:42;;;;;;;27.67;14.33;;;1.00;99.90;;;;;;5013894;28;20232;-62
2022/12/04 07:40:11;;;;;;;35.43;15.47;;;1.00;99.90;;;;;;5024554;28;20202;-62
2022/12/04 07:42:38;;;;;;;31.00;15.20;;;1.00;99.90;;;;;;4992047;28;20215;-62
2022/12/04 07:45:06;;;;;;;28.57;14.80;;;1.10;99.90;;;;;;5018995;28;20213;-61
2022/12/04 07:47:34;;;;;;;36.20;15.83;;;1.10;99.90;;;;;;5019239;28;20205;-61
2022/12/04 07:50:01;;;;;;;33.77;15.43;;;1.10;99.90;;;;;;5027018;28;20217;-62
2022/12/04 07:52:28;;;;;;;30.07;14.10;;;1.10;99.90;;;;;;5009070;28;20202;-62
2022/12/04 07:54:54;;;;;;;31.93;15.47;;;1.00;99.90;;;;;;5003368;28;20225;-62
2022/12/04 07:57:23;;;;;;;31.40;14.33;;;1.10;99.90;;;;;;4994992;28;20202;-61
2022/12/04 07:59:49;;;;;;;29.10;13.67;;;1.10;99.90;;;;;;5027165;28;20213;-61
2022/12/04 08:02:16;;;;;;;29.30;14.63;;;1.10;99.90;;;;;;4997066;28;20208;-61
2022/12/04 08:04:43;;;;;;;31.70;14.63;;;1.10;99.90;;;;;;5013121;28;20219;-61
2022/12/04 08:07:09;;;;;;;30.07;13.70;;;1.10;99.90;;;;;;4988004;28;20430;-61
2022/12/04 08:09:36;;;;;;;29.50;15.90;;;1.10;99.90;;;;;;5005626;28;20213;-61
2022/12/04 08:12:03;;;;;;;30.37;14.83;;;1.10;99.90;;;;;;4986214;28;20235;-62
2022/12/04 08:14:31;;;;;;;30.97;14.57;;;1.10;99.90;;;;;;5018179;28;20219;-61
2022/12/04 08:16:58;;;;;;;34.20;15.77;;;1.10;99.90;;;;;;5016120;28;20205;-62
2022/12/04 08:19:25;;;;;;;33.70;16.17;;;1.10;99.90;;;;;;5002556;28;20238;-62
2022/12/04 08:21:54;;;;;;;29.50;14.13;;;1.10;99.90;;;;;;5008724;28;20204;-62
2022/12/04 08:24:21;;;;;;;33.27;14.73;;;1.20;99.90;;;;;;5011288;28;20626;-61
2022/12/04 08:26:48;;;;;;;32.13;15.73;;;1.10;99.90;;;;;;4989261;28;20211;-62
2022/12/04 08:29:15;;;;;;;27.73;13.47;;;1.10;99.90;;;;;;5019445;28;20205;-62
2022/12/04 08:31:43;;;;;;;32.80;13.60;;;1.20;99.90;;;;;;5012136;28;20240;-61
2022/12/04 08:34:10;;;;;;;29.10;13.23;;;1.10;99.90;;;;;;5012652;28;20225;-61
2022/12/04 08:36:36;;;;;;;29.50;14.73;;;1.20;99.90;;;;;;5014872;28;20205;-62
2022/12/04 08:39:04;;;;;;;26.50;13.53;;;1.20;99.90;;;;;;5008898;28;20252;-61
2022/12/04 08:41:31;;;;;;;29.17;14.67;;;1.10;99.90;;;;;;5013368;28;20221;-61
2022/12/04 08:43:58;;;;;;;31.67;15.37;;;1.20;99.90;;;;;;4991785;28;20790;-61
2022/12/04 08:46:26;;;;;;;31.57;14.47;;;1.20;99.90;;;;;;5017778;28;20218;-61
2022/12/04 08:48:55;;;;;;;27.87;14.63;;;1.20;99.90;;;;;;4990819;28;21586;-61
2022/12/04 08:51:24;;;;;;;33.23;14.53;;;1.20;99.90;;;;;;5016753;28;20259;-61
2022/12/04 08:53:54;;;;;;;25.77;14.10;;;1.20;99.90;;;;;;5010221;28;20225;-62
2022/12/04 08:56:21;;;;;;;27.30;14.07;;;1.20;99.90;;;;;;5018072;28;20733;-62
2022/12/04 08:58:48;;;;;;;32.00;14.67;;;1.30;99.90;;;;;;4993677;28;20236;-61
2022/12/04 09:01:15;;;;;;;30.53;15.13;;;1.30;99.90;;;;;;5003794;28;20411;-63
2022/12/04 09:03:42;;;;;;;28.03;14.07;;;1.30;99.90;;;;;;5004031;28;20205;-61
2022/12/04 09:06:13;;;;;;;27.63;14.80;;;1.30;99.90;;;;;;4992460;28;20394;-62
2022/12/04 09:08:40;;;;;;;31.03;16.70;;;1.30;99.90;;;;;;5012178;28;20205;-61
2022/12/04 09:11:10;;;;;;;36.30;15.60;;;1.30;99.90;;;;;;5008644;28;20201;-61
2022/12/04 09:13:38;;;;;;;31.07;13.67;;;1.30;99.90;;;;;;4983444;28;20214;-62
2022/12/04 09:16:06;;;;;;;27.57;14.60;;;1.30;99.90;;;;;;5020145;28;20218;-61
2022/12/04 09:18:34;;;;;;;32.03;16.17;;;1.30;99.90;;;;;;5007018;28;20247;-62
2022/12/04 09:21:03;;;;;;;27.97;15.07;;;1.50;99.90;;;;;;4978421;28;20237;-61
2022/12/04 09:23:33;;;;;;;38.80;15.63;;;1.30;99.90;;;;;;4987447;28;20352;-61
2022/12/04 09:25:59;;;;;;;28.30;14.23;;;1.30;99.90;;;;;;4986640;28;20233;-61
2022/12/04 09:28:27;;;;;;;27.20;14.83;;;1.30;99.90;;;;;;4982780;28;20526;-62
2022/12/04 09:30:58;;;;;;;29.70;14.47;;;1.40;99.90;;;;;;4997811;28;20733;-61
2022/12/04 09:33:25;;;;;;;28.37;14.37;;;1.40;99.90;;;;;;5010591;28;20660;-61
2022/12/04 09:35:52;;;;;;;31.60;13.70;;;1.40;99.90;;;;;;5015077;28;20581;-62
2022/12/04 09:38:19;;;;;;;33.63;15.17;;;1.40;99.90;;;;;;4989734;28;20237;-62
2022/12/04 09:40:54;;;;;;;30.73;14.77;;;1.40;99.90;;;;;;4987667;28;20205;-62
2022/12/04 09:43:30;;;;;;;28.63;14.63;;;1.50;99.90;;;;;;5009903;28;20217;-62
2022/12/04 09:46:04;;;;;;;33.33;15.73;;;1.50;99.90;;;;;;5008278;28;20251;-62
2022/12/04 09:48:36;;;;;;;35.73;18.40;;;1.50;99.90;;;;;;5019207;28;20232;-62
2022/12/04 09:51:05;;;;;;;33.10;15.93;;;1.50;99.90;;;;;;5003825;28;20244;-62
2022/12/04 09:53:41;;;;;;;29.20;14.23;;;1.50;99.90;;;;;;4997955;28;20229;-62
2022/12/04 09:56:13;;;;;;;27.13;13.90;;;1.60;99.90;;;;;;5006575;28;20202;-62
2022/12/04 09:58:45;;;;;;;30.53;14.30;;;1.60;99.90;;;;;;5009766;28;20245;-62
2022/12/04 10:01:20;;;;;;;25.13;12.60;;;1.60;99.90;;;;;;4985326;28;20235;-62
2022/12/04 10:03:47;;;;;;;30.10;15.50;;;1.60;99.90;;;;;;5011917;28;20406;-62
2022/12/04 10:06:19;;;;;;;33.47;14.70;;;1.60;99.90;;;;;;5010558;28;20209;-62
2022/12/04 10:08:51;;;;;;;32.17;14.80;;;1.70;99.90;;;;;;4994030;28;21385;-62
2022/12/04 10:11:27;;;;;;;31.17;14.60;;;1.70;99.90;;;;;;5021068;28;20202;-62
2022/12/04 10:14:10;;;;;;;31.33;15.00;;;1.70;99.90;;;;;;5001509;28;20209;-62
2022/12/04 10:16:49;;;;;;;29.23;14.50;;;1.70;99.90;;;;;;4980977;28;20217;-62
2022/12/04 10:19:27;;;;;;;38.47;15.07;;;1.70;99.90;;;;;;5017173;28;20727;-62
2022/12/04 10:22:03;;;;;;;28.13;14.30;;;1.70;99.90;;;;;;5014835;28;20189;-62
2022/12/04 10:24:40;;;;;;;30.77;13.90;;;1.70;99.90;;;;;;5001733;28;20226;-62
2022/12/04 10:27:16;;;;;;;31.17;14.87;;;1.80;99.90;;;;;;5004225;28;20233;-62
2022/12/04 10:29:47;;;;;;;35.73;16.00;;;1.50;99.90;;;;;;4982899;28;20222;-63
2022/12/04 10:32:18;;;;;;;31.33;15.57;;;1.80;99.90;;;;;;5011494;28;20226;-62
2022/12/04 10:34:46;;;;;;;31.37;15.37;;;1.80;99.90;;;;;;5008851;28;20442;-63
2022/12/04 10:37:15;;;;;;;30.97;16.00;;;1.80;99.90;;;;;;5018874;28;20659;-62
2022/12/04 10:39:46;;;;;;;31.20;14.50;;;1.90;99.90;;;;;;5004996;28;20225;-63
2022/12/04 10:42:24;;;;;;;29.93;14.63;;;1.90;99.90;;;;;;5021937;28;21286;-62
2022/12/04 10:44:51;;;;;;;31.90;15.00;;;1.90;99.90;;;;;;5000961;28;20813;-62
2022/12/04 10:47:20;;;;;;;30.57;15.03;;;1.90;99.90;;;;;;4970607;28;20228;-62
2022/12/04 10:49:48;;;;;;;32.73;16.37;;;2.00;99.90;;;;;;5024243;28;20659;-62
2022/12/04 10:52:15;;;;;;;29.67;14.33;;;2.00;99.90;;;;;;5013098;28;20207;-63
2022/12/04 10:54:47;;;;;;;32.70;15.37;;;1.90;99.90;;;;;;5022396;28;20237;-62
2022/12/04 10:57:16;;;;;;;30.80;16.17;;;2.00;99.90;;;;;;5005379;28;20223;-62
2022/12/04 10:59:50;;;;;;;35.83;16.40;;;2.00;99.90;;;;;;4998798;28;20236;-62
2022/12/04 11:02:22;;;;;;;30.40;15.07;;;2.00;99.90;;;;;;4978201;28;20995;-62
2022/12/04 11:04:55;;;;;;;32.77;16.23;;;2.00;99.90;;;;;;5012077;28;20222;-62
2022/12/04 11:07:24;;;;;;;30.07;14.00;;;2.10;99.90;;;;;;5016882;28;20241;-62
2022/12/04 11:10:02;;;;;;;33.27;15.17;;;2.00;99.90;;;;;;4994534;28;20214;-62
2022/12/04 11:12:31;;;;;;;31.37;15.03;;;2.10;99.90;;;;;;5016164;28;20234;-63
2022/12/04 11:15:08;;;;;;;28.43;14.00;;;2.10;99.90;;;;;;4995151;28;20222;-62
2022/12/04 11:17:35;;;;;;;33.50;14.63;;;2.30;99.90;;;;;;4971723;28;20223;-63
2022/12/04 11:20:05;;;;;;;31.17;14.53;;;2.10;99.90;;;;;;5006543;28;20270;-62
2022/12/04 11:22:32;;;;;;;36.90;16.43;;;2.10;99.90;;;;;;5014769;28;20692;-63
2022/12/04 11:25:00;;;;;;;35.57;14.60;;;2.20;99.90;;;;;;5010575;28;20221;-64
2022/12/04 11:27:33;;;;;;;33.93;15.80;;;2.20;99.90;;;;;;5015672;28;21075;-62
2022/12/04 11:30:03;;;;;;;31.23;15.70;;;2.20;99.90;;;;;;5010289;28;20214;-62
2022/12/04 11:32:33;;;;;;;29.97;14.20;;;2.20;99.90;;;;;;4995321;28;20232;-63
2022/12/04 11:35:07;;;;;;;36.13;14.50;;;2.20;99.90;;;;;;5017388;28;20235;-63
2022/12/04 11:37:35;;;;;;;36.73;16.70;;;2.20;99.90;;;;;;5020864;28;20195;-63
2022/12/04 11:40:06;;;;;;;31.30;15.00;;;2.20;99.90;;;;;;5011113;28;20227;-62
2022/12/04 11:42:34;;;;;;;31.47;15.87;;;2.30;99.90;;;;;;4995860;28;20751;-62
2022/12/04 11:45:03;;;;;;;34.07;15.53;;;2.20;99.90;;;;;;5004838;28;20199;-63
2022/12/04 11:47:32;;;;;;;33.83;16.43;;;2.20;99.90;;;;;;4996973;28;20222;-63
2022/12/04 11:50:12;;;;;;;30.47;16.00;;;2.30;99.90;;;;;;5020801;28;20708;-63
2022/12/04 11:53:01;;;;;;;41.87;16.73;;;2.30;99.90;;;;;;5021079;28;20327;-62
2022/12/04 11:55:40;;;;;;;32.27;14.90;;;2.30;99.90;;;;;;5023091;28;20814;-62
2022/12/04 11:58:41;;;;;;;37.93;15.40;;;2.30;99.90;;;;;;4993718;28;20206;-63
2022/12/04 12:01:20;;;;;;;41.10;15.47;;;2.30;99.90;;;;;;4958951;28;20334;-63
2022/12/04 12:04:07;;;;;;;32.03;15.80;;;2.30;99.90;;;;;;4983160;28;20217;-62
2022/12/04 12:06:37;;;;;;;31.93;15.80;;;2.30;99.90;;;;;;5015721;28;20212;-62
2022/12/04 12:09:23;;;;;;;37.70;15.97;;;2.30;99.90;;;;;;5019437;28;20239;-63
2022/12/04 12:12:00;;;;;;;35.50;15.80;;;2.30;99.90;;;;;;5024373;28;20202;-62
2022/12/04 12:14:34;;;;;;;33.03;14.13;;;2.30;99.90;;;;;;4992341;28;20233;-62
2022/12/04 12:17:12;;;;;;;32.37;15.33;;;2.30;99.90;;;;;;4998150;28;20218;-62
2022/12/04 12:19:58;;;;;;;30.00;15.50;;;2.30;99.90;;;;;;5019698;28;20345;-62
2022/12/04 12:22:53;;;;;;;33.33;15.63;;;2.40;99.90;;;;;;5017799;28;20615;-62
2022/12/04 12:25:26;;;;;;;34.87;15.73;;;2.40;99.90;;;;;;5015687;28;20195;-63
2022/12/04 12:28:11;;;;;;;57.37;29.13;;;2.40;99.90;;;;;;5010071;28;20260;-63
2022/12/04 12:30:52;;;;;;;33.90;19.10;;;2.30;99.90;;;;;;5007178;28;20213;-62
2022/12/04 12:33:23;;;;;;;33.47;15.70;;;2.40;99.90;;;;;;4989579;28;20206;-63
2022/12/04 12:35:56;;;;;;;34.83;16.60;;;2.40;99.90;;;;;;4996095;28;20274;-63
2022/12/04 12:38:27;;;;;;;36.20;15.40;;;2.40;99.90;;;;;;5017727;28;20217;-64
2022/12/04 12:41:00;;;;;;;34.17;16.17;;;2.40;99.90;;;;;;5014082;28;20557;-62
2022/12/04 12:43:30;;;;;;;37.30;17.00;;;2.40;99.90;;;;;;4998469;28;20221;-63
2022/12/04 12:46:04;;;;;;;31.80;15.83;;;2.40;99.90;;;;;;4984205;28;20237;-63
2022/12/04 12:48:38;;;;;;;35.03;15.47;;;2.40;99.90;;;;;;5010852;28;20195;-62
2022/12/04 12:51:12;;;;;;;34.03;15.13;;;2.50;99.90;;;;;;4981756;28;20260;-62
2022/12/04 12:53:42;;;;;;;35.47;15.70;;;2.50;99.90;;;;;;5010673;28;20204;-63
2022/12/04 12:56:12;;;;;;;34.70;15.67;;;2.50;99.90;;;;;;5019510;23;20249;-62
2022/12/04 12:58:43;;;;;;;40.27;17.23;;;2.50;99.90;;;;;;5028485;28;21021;-63
2022/12/04 13:01:16;;;;;;;32.40;15.47;;;2.50;99.90;;;;;;5012586;28;20368;-62